Time;durP1;ratioP1;P1;durP2;ratioP2;P2;SDS_P1;SDS_P2;PMS_P1;PMS_P2;Temp;Humidity;BMP_temperature;BMP_pressure;BME280_temperature;BME280_humidity;BME280_pressure;Samples;Min_cycle;Max_cycle;Signal;HPM_P1;HPM_P2
2023/08/27 00:01:19;;;;;;;3.33;1.50;;;;;;;;;;5006429;28;20061;-80
2023/08/27 00:03:45;;;;;;;2.15;1.50;;;;;;;;;;5006029;28;20113;-79
2023/08/27 00:06:14;;;;;;;2.35;1.63;;;;;;;;;;5002735;28;20030;-79
2023/08/27 00:08:43;;;;;;;8.10;1.60;;;;;;;;;;5005352;28;20092;-80
2023/08/27 00:11:10;;;;;;;6.90;2.13;;;;;;;;;;5005951;28;20018;-79
2023/08/27 00:13:36;;;;;;;2.53;1.60;;;;;;;;;;5003931;28;20079;-79
2023/08/27 00:16:04;;;;;;;2.22;1.70;;;;;;;;;;5003465;28;20038;-79
2023/08/27 00:18:30;;;;;;;1.85;1.38;;;;;;;;;;5006203;28;20040;-80
2023/08/27 00:20:56;;;;;;;3.78;1.83;;;;;;;;;;5006004;28;20034;-80
2023/08/27 00:23:23;;;;;;;3.22;1.70;;;;;;;;;;5006649;28;20033;-80
2023/08/27 00:25:49;;;;;;;1.50;1.40;;;;;;;;;;5005029;28;20026;-79
2023/08/27 00:28:15;;;;;;;4.05;1.75;;;;;;;;;;5004140;28;20368;-79
2023/08/27 00:30:41;;;;;;;2.83;1.65;;;;;;;;;;5002350;28;20049;-79
2023/08/27 00:33:07;;;;;;;6.90;1.92;;;;;;;;;;5003747;28;20036;-80
2023/08/27 00:35:33;;;;;;;4.95;2.58;;;;;;;;;;5004697;28;20025;-80
2023/08/27 00:37:59;;;;;;;5.07;2.38;;;;;;;;;;5006071;28;20125;-79
2023/08/27 00:40:29;;;;;;;3.83;2.38;;;;;;;;;;5005409;28;20034;-80
2023/08/27 00:42:55;;;;;;;4.40;2.83;;;;;;;;;;4999702;28;20447;-80
2023/08/27 00:45:21;;;;;;;5.47;3.13;;;;;;;;;;5002388;28;20022;-80
2023/08/27 00:47:47;;;;;;;7.20;3.38;;;;;;;;;;5006880;28;20445;-80
2023/08/27 00:50:14;;;;;;;6.00;3.70;;;;;;;;;;5002056;28;20053;-80
2023/08/27 00:52:40;;;;;;;6.72;4.07;;;;;;;;;;5007554;28;20433;-80
2023/08/27 00:55:08;;;;;;;7.85;3.88;;;;;;;;;;5002960;28;20038;-78
2023/08/27 00:57:34;;;;;;;7.90;4.70;;;;;;;;;;5006468;28;20026;-80
2023/08/27 01:00:00;;;;;;;8.40;4.82;;;;;;;;;;5005951;28;20053;-80
2023/08/27 01:02:26;;;;;;;8.82;4.68;;;;;;;;;;5000816;28;20027;-80
2023/08/27 01:04:52;;;;;;;10.88;4.88;;;;;;;;;;5006962;28;20212;-80
2023/08/27 01:07:23;;;;;;;8.48;4.88;;;;;;;;;;5010032;28;20018;-80
2023/08/27 01:09:59;;;;;;;13.65;4.75;;;;;;;;;;5009824;28;20037;-80
2023/08/27 01:12:35;;;;;;;9.90;5.55;;;;;;;;;;5007973;28;20044;-79
2023/08/27 01:15:04;;;;;;;7.70;5.25;;;;;;;;;;5008644;28;20030;-80
2023/08/27 01:17:31;;;;;;;7.55;4.50;;;;;;;;;;5008758;28;20030;-79
2023/08/27 01:19:57;;;;;;;8.45;4.53;;;;;;;;;;5008534;28;20065;-79
2023/08/27 01:22:23;;;;;;;7.60;4.57;;;;;;;;;;5007126;28;20029;-80
2023/08/27 01:24:49;;;;;;;6.88;4.00;;;;;;;;;;5008734;28;20485;-80
2023/08/27 01:27:20;;;;;;;7.20;4.00;;;;;;;;;;5009425;28;20026;-80
2023/08/27 01:29:52;;;;;;;8.70;4.30;;;;;;;;;;5009836;28;20021;-80
2023/08/27 01:32:39;;;;;;;8.25;4.95;;;;;;;;;;5008289;28;20095;-80
2023/08/27 01:35:07;;;;;;;8.27;4.97;;;;;;;;;;5009045;28;20041;-80
2023/08/27 01:37:33;;;;;;;6.35;3.88;;;;;;;;;;5008384;28;20429;-80
2023/08/27 01:40:01;;;;;;;6.70;4.40;;;;;;;;;;5005345;28;20071;-80
2023/08/27 01:42:27;;;;;;;5.63;3.92;;;;;;;;;;5009963;28;20121;-80
2023/08/27 01:44:53;;;;;;;7.72;4.25;;;;;;;;;;4998078;28;20487;-78
2023/08/27 01:47:19;;;;;;;9.98;4.65;;;;;;;;;;5009151;28;20096;-78
2023/08/27 01:49:45;;;;;;;9.07;4.53;;;;;;;;;;5008607;28;20368;-78
2023/08/27 01:52:11;;;;;;;7.05;4.30;;;;;;;;;;5006383;28;20452;-78
2023/08/27 01:54:37;;;;;;;5.47;3.95;;;;;;;;;;5008677;28;20033;-78
2023/08/27 01:57:03;;;;;;;7.32;3.92;;;;;;;;;;5007125;28;20026;-79
2023/08/27 01:59:29;;;;;;;6.70;3.97;;;;;;;;;;5008108;28;20042;-78
2023/08/27 02:01:55;;;;;;;8.25;4.30;;;;;;;;;;5004881;28;20116;-78
2023/08/27 02:04:21;;;;;;;7.82;4.07;;;;;;;;;;5008422;28;20037;-78
2023/08/27 02:06:47;;;;;;;5.88;3.78;;;;;;;;;;5007553;28;20056;-78
2023/08/27 02:09:13;;;;;;;5.30;3.30;;;;;;;;;;5008525;28;20030;-78
2023/08/27 02:11:39;;;;;;;10.00;4.28;;;;;;;;;;5006507;28;20042;-78
2023/08/27 02:14:05;;;;;;;5.57;3.83;;;;;;;;;;5002627;28;20387;-78
2023/08/27 02:16:32;;;;;;;5.95;3.97;;;;;;;;;;5009208;28;20220;-78
2023/08/27 02:18:58;;;;;;;7.40;4.03;;;;;;;;;;5009157;28;20050;-78
2023/08/27 02:21:24;;;;;;;6.20;3.40;;;;;;;;;;5008172;28;20057;-78
2023/08/27 02:23:50;;;;;;;6.03;3.67;;;;;;;;;;5005990;28;20030;-78
2023/08/27 02:26:16;;;;;;;9.52;3.92;;;;;;;;;;5000395;28;20026;-78
2023/08/27 02:28:42;;;;;;;5.88;3.95;;;;;;;;;;5008558;28;20399;-78
2023/08/27 02:31:08;;;;;;;7.63;3.92;;;;;;;;;;5008216;28;20489;-78
2023/08/27 02:33:35;;;;;;;7.00;3.60;;;;;;;;;;5004117;28;20034;-78
2023/08/27 02:36:01;;;;;;;7.68;3.70;;;;;;;;;;5006355;28;20033;-78
2023/08/27 02:38:27;;;;;;;6.65;3.50;;;;;;;;;;5007983;28;20141;-78
2023/08/27 02:40:53;;;;;;;6.35;3.92;;;;;;;;;;4995386;28;20116;-78
2023/08/27 02:43:19;;;;;;;7.72;3.70;;;;;;;;;;5005673;28;20121;-78
2023/08/27 02:45:47;;;;;;;7.50;3.78;;;;;;;;;;5002737;28;20024;-78
2023/08/27 02:48:13;;;;;;;6.10;4.00;;;;;;;;;;5006001;28;20026;-78
2023/08/27 02:50:39;;;;;;;8.32;4.32;;;;;;;;;;5000821;28;20049;-78
2023/08/27 02:53:05;;;;;;;6.90;4.18;;;;;;;;;;5007929;28;20056;-78
2023/08/27 02:55:31;;;;;;;11.07;4.15;;;;;;;;;;5005863;28;20043;-78
2023/08/27 02:57:57;;;;;;;6.63;3.63;;;;;;;;;;4999637;28;20030;-78
2023/08/27 03:00:23;;;;;;;7.38;3.50;;;;;;;;;;5002049;28;20050;-78
2023/08/27 03:02:49;;;;;;;4.82;3.47;;;;;;;;;;5007304;28;20541;-78
2023/08/27 03:05:15;;;;;;;7.85;4.75;;;;;;;;;;5006830;28;20022;-78
2023/08/27 03:07:41;;;;;;;5.78;3.30;;;;;;;;;;5005639;28;20030;-78
2023/08/27 03:10:08;;;;;;;4.93;3.20;;;;;;;;;;5007096;28;20364;-78
2023/08/27 03:12:33;;;;;;;7.03;3.92;;;;;;;;;;5006659;28;20475;-79
2023/08/27 03:14:59;;;;;;;5.03;3.28;;;;;;;;;;5006124;28;20029;-78
2023/08/27 03:17:34;;;;;;;8.18;3.90;;;;;;;;;;5006821;28;20025;-78
2023/08/27 03:20:00;;;;;;;5.32;3.05;;;;;;;;;;5007095;28;20042;-78
2023/08/27 03:22:26;;;;;;;6.10;3.15;;;;;;;;;;5005551;28;20026;-79
2023/08/27 03:24:54;;;;;;;5.30;3.22;;;;;;;;;;5007122;28;20100;-78
2023/08/27 03:27:23;;;;;;;4.78;2.95;;;;;;;;;;5005294;28;20025;-79
2023/08/27 03:29:49;;;;;;;5.88;3.30;;;;;;;;;;5005328;28;20030;-78
2023/08/27 03:32:15;;;;;;;6.53;3.03;;;;;;;;;;5005374;28;20075;-78
2023/08/27 03:34:41;;;;;;;4.63;3.10;;;;;;;;;;5004580;28;20045;-78
2023/08/27 03:37:07;;;;;;;4.15;3.03;;;;;;;;;;4999512;28;20026;-78
2023/08/27 03:39:33;;;;;;;4.22;2.97;;;;;;;;;;5006197;28;20088;-79
2023/08/27 03:41:59;;;;;;;7.45;3.65;;;;;;;;;;5005542;28;20033;-78
2023/08/27 03:44:25;;;;;;;6.03;3.42;;;;;;;;;;5004479;28;20502;-78
2023/08/27 03:46:51;;;;;;;6.22;3.90;;;;;;;;;;5005896;28;20025;-78
2023/08/27 03:49:17;;;;;;;4.70;3.33;;;;;;;;;;5007091;28;20478;-79
2023/08/27 03:51:43;;;;;;;4.93;3.58;;;;;;;;;;5005681;28;20497;-78
2023/08/27 03:54:09;;;;;;;4.85;3.13;;;;;;;;;;5002332;28;20022;-78
2023/08/27 03:56:35;;;;;;;5.38;3.40;;;;;;;;;;4998672;28;20030;-78
2023/08/27 03:59:01;;;;;;;5.10;2.97;;;;;;;;;;5001832;28;20025;-78
2023/08/27 04:01:27;;;;;;;7.10;3.33;;;;;;;;;;5003160;28;20045;-78
2023/08/27 04:03:54;;;;;;;4.80;3.13;;;;;;;;;;5006500;28;20050;-78
2023/08/27 04:06:21;;;;;;;4.45;2.92;;;;;;;;;;5005500;28;20028;-78
2023/08/27 04:08:47;;;;;;;4.72;3.33;;;;;;;;;;5002647;28;20032;-78
2023/08/27 04:11:13;;;;;;;4.75;3.00;;;;;;;;;;5003763;28;20030;-78
2023/08/27 04:13:39;;;;;;;4.55;3.20;;;;;;;;;;5003541;28;20026;-78
2023/08/27 04:16:06;;;;;;;5.03;3.08;;;;;;;;;;5004808;28;20372;-78
2023/08/27 04:18:33;;;;;;;5.63;3.13;;;;;;;;;;5002748;28;20034;-78
2023/08/27 04:20:59;;;;;;;3.85;2.42;;;;;;;;;;5005550;28;20036;-78
2023/08/27 04:23:25;;;;;;;6.85;3.00;;;;;;;;;;5006119;28;20433;-78
2023/08/27 04:25:52;;;;;;;4.75;3.20;;;;;;;;;;5003331;28;20022;-78
2023/08/27 04:28:18;;;;;;;5.57;2.83;;;;;;;;;;5005874;28;20013;-78
2023/08/27 04:30:44;;;;;;;4.85;2.45;;;;;;;;;;5002778;28;20022;-78
2023/08/27 04:33:10;;;;;;;4.00;2.63;;;;;;;;;;4995868;28;20501;-78
2023/08/27 04:35:37;;;;;;;5.38;3.47;;;;;;;;;;5007353;28;20036;-78
2023/08/27 04:38:03;;;;;;;6.07;2.78;;;;;;;;;;5009122;28;20033;-78
2023/08/27 04:40:29;;;;;;;4.80;3.33;;;;;;;;;;5005451;28;20026;-78
2023/08/27 04:42:56;;;;;;;6.00;3.15;;;;;;;;;;5024711;28;20026;-78
2023/08/27 04:45:22;;;;;;;6.65;3.08;;;;;;;;;;5009211;28;20037;-78
2023/08/27 04:47:47;;;;;;;4.82;2.65;;;;;;;;;;5010120;28;20034;-78
2023/08/27 04:50:13;;;;;;;4.80;2.75;;;;;;;;;;5006692;28;20025;-78
2023/08/27 04:52:39;;;;;;;3.88;2.67;;;;;;;;;;5009405;28;20049;-78
2023/08/27 04:55:07;;;;;;;3.72;2.63;;;;;;;;;;5007726;28;20461;-78
2023/08/27 04:57:33;;;;;;;4.88;2.50;;;;;;;;;;5007150;28;20057;-78
2023/08/27 04:59:59;;;;;;;5.95;2.65;;;;;;;;;;5006499;28;20030;-78
2023/08/27 05:02:26;;;;;;;5.10;3.22;;;;;;;;;;5004685;28;20050;-78
2023/08/27 05:04:51;;;;;;;5.65;2.20;;;;;;;;;;5006619;28;20064;-78
2023/08/27 05:07:17;;;;;;;8.00;2.95;;;;;;;;;;5008197;28;20036;-78
2023/08/27 05:09:45;;;;;;;4.65;3.13;;;;;;;;;;5008578;28;20366;-78
2023/08/27 05:12:11;;;;;;;3.60;2.58;;;;;;;;;;5006072;28;20438;-78
2023/08/27 05:14:37;;;;;;;4.13;2.70;;;;;;;;;;5005284;28;20017;-78
2023/08/27 05:17:03;;;;;;;3.50;2.63;;;;;;;;;;5007071;28;20034;-78
2023/08/27 05:19:29;;;;;;;6.90;3.35;;;;;;;;;;5007100;28;20045;-78
2023/08/27 05:21:55;;;;;;;2.75;2.33;;;;;;;;;;5006652;28;20360;-79
2023/08/27 05:24:21;;;;;;;6.10;3.35;;;;;;;;;;4995214;28;20022;-78
2023/08/27 05:26:47;;;;;;;6.28;3.25;;;;;;;;;;5006375;28;20399;-78
2023/08/27 05:29:13;;;;;;;3.88;2.33;;;;;;;;;;5009353;28;20415;-78
2023/08/27 05:31:39;;;;;;;3.10;2.20;;;;;;;;;;5004284;28;20418;-78
2023/08/27 05:34:05;;;;;;;3.20;2.58;;;;;;;;;;5006533;28;20427;-78
2023/08/27 05:36:31;;;;;;;3.90;2.38;;;;;;;;;;5007083;28;20029;-78
2023/08/27 05:38:58;;;;;;;5.80;2.72;;;;;;;;;;5008325;28;20511;-79
2023/08/27 05:41:24;;;;;;;3.63;2.05;;;;;;;;;;5007627;28;20044;-78
2023/08/27 05:43:50;;;;;;;3.05;2.30;;;;;;;;;;5007824;28;20386;-79
2023/08/27 05:46:16;;;;;;;4.82;2.40;;;;;;;;;;5008321;28;20617;-79
2023/08/27 05:48:42;;;;;;;3.05;2.25;;;;;;;;;;5007089;28;20010;-79
2023/08/27 05:51:08;;;;;;;6.10;2.58;;;;;;;;;;5007629;28;20116;-79
2023/08/27 05:53:34;;;;;;;2.97;2.22;;;;;;;;;;5004551;28;20110;-78
2023/08/27 05:56:04;;;;;;;4.78;2.45;;;;;;;;;;5007411;28;20097;-78
2023/08/27 05:58:29;;;;;;;2.85;2.03;;;;;;;;;;5007831;28;20026;-78
2023/08/27 06:00:56;;;;;;;2.45;2.10;;;;;;;;;;5002079;28;20045;-78
2023/08/27 06:03:22;;;;;;;3.03;2.20;;;;;;;;;;5007522;28;20064;-78
2023/08/27 06:05:48;;;;;;;3.13;2.42;;;;;;;;;;5005011;28;20019;-78
2023/08/27 06:08:14;;;;;;;5.55;3.33;;;;;;;;;;4989684;28;20027;-78
2023/08/27 06:10:41;;;;;;;3.33;1.92;;;;;;;;;;5003457;28;20022;-78
2023/08/27 06:13:07;;;;;;;3.83;2.42;;;;;;;;;;5021908;28;20036;-78
2023/08/27 06:16:02;;;;;;;;;;;;;;;;;;;;;
2023/08/27 06:18:28;;;;;;;3.65;2.45;;;;;;;;;;5001951;28;20033;-79
2023/08/27 06:20:54;;;;;;;3.65;2.28;;;;;;;;;;5009241;28;20080;-79
2023/08/27 06:23:20;;;;;;;2.83;1.90;;;;;;;;;;5005974;28;20036;-79
2023/08/27 06:25:46;;;;;;;4.07;2.78;;;;;;;;;;5002751;28;20092;-79
2023/08/27 06:28:15;;;;;;;3.58;2.35;;;;;;;;;;5008195;28;20026;-78
2023/08/27 06:30:44;;;;;;;2.40;1.98;;;;;;;;;;5007369;28;20136;-79
2023/08/27 06:33:11;;;;;;;3.97;2.30;;;;;;;;;;4996995;28;20446;-79
2023/08/27 06:35:37;;;;;;;3.30;2.28;;;;;;;;;;5009021;28;20037;-79
2023/08/27 06:38:03;;;;;;;2.70;1.80;;;;;;;;;;4996266;28;20085;-78
2023/08/27 06:40:29;;;;;;;2.72;2.47;;;;;;;;;;5007345;28;20041;-79
2023/08/27 06:42:59;;;;;;;3.60;2.40;;;;;;;;;;4996879;28;20026;-79
2023/08/27 06:45:27;;;;;;;3.70;2.28;;;;;;;;;;5008584;28;20041;-79
2023/08/27 06:47:53;;;;;;;2.97;2.25;;;;;;;;;;5008522;28;20026;-78
2023/08/27 06:50:20;;;;;;;3.17;2.20;;;;;;;;;;5005584;28;20030;-78
2023/08/27 06:52:46;;;;;;;4.10;2.35;;;;;;;;;;5008710;28;20030;-78
2023/08/27 06:55:12;;;;;;;4.00;2.20;;;;;;;;;;5004951;28;20056;-78
2023/08/27 06:57:38;;;;;;;7.05;2.10;;;;;;;;;;5001976;28;20026;-78
2023/08/27 07:00:07;;;;;;;2.65;1.95;;;;;;;;;;5006245;28;20060;-78
2023/08/27 07:02:33;;;;;;;2.13;1.77;;;;;;;;;;5006732;28;20398;-78
2023/08/27 07:04:59;;;;;;;3.90;2.22;;;;;;;;;;5004456;28;20054;-78
2023/08/27 07:07:25;;;;;;;3.22;1.83;;;;;;;;;;5008277;28;20041;-78
2023/08/27 07:09:52;;;;;;;2.25;1.98;;;;;;;;;;5005331;28;20033;-78
2023/08/27 07:12:21;;;;;;;2.53;1.73;;;;;;;;;;5004775;28;20026;-78
2023/08/27 07:14:47;;;;;;;2.55;1.77;;;;;;;;;;5006133;28;20072;-78
2023/08/27 07:17:14;;;;;;;4.47;2.22;;;;;;;;;;5007162;28;20029;-78
2023/08/27 07:19:41;;;;;;;4.32;2.13;;;;;;;;;;5007765;28;20037;-78
2023/08/27 07:22:07;;;;;;;3.75;2.05;;;;;;;;;;5006746;28;20401;-78
2023/08/27 07:24:33;;;;;;;3.05;1.85;;;;;;;;;;5001753;28;20030;-79
2023/08/27 07:26:59;;;;;;;1.70;1.60;;;;;;;;;;5006677;28;20034;-79
2023/08/27 07:29:25;;;;;;;2.05;1.80;;;;;;;;;;5005494;28;20033;-79
2023/08/27 07:31:51;;;;;;;1.92;1.50;;;;;;;;;;5006609;28;20021;-79
2023/08/27 07:34:17;;;;;;;2.72;2.00;;;;;;;;;;5006765;28;20084;-79
2023/08/27 07:36:43;;;;;;;2.10;1.55;;;;;;;;;;5000179;28;20151;-79
2023/08/27 07:39:09;;;;;;;2.58;1.92;;;;;;;;;;5006329;28;20033;-78
2023/08/27 07:41:35;;;;;;;2.63;1.63;;;;;;;;;;5006637;28;20022;-78
2023/08/27 07:44:01;;;;;;;2.40;1.75;;;;;;;;;;5007195;28;20092;-78
2023/08/27 07:46:27;;;;;;;2.90;1.50;;;;;;;;;;5004544;28;20026;-77
2023/08/27 07:48:53;;;;;;;2.50;2.10;;;;;;;;;;5007253;28;20040;-78
2023/08/27 07:51:19;;;;;;;2.78;1.60;;;;;;;;;;5006840;28;20108;-77
2023/08/27 07:53:45;;;;;;;2.78;1.80;;;;;;;;;;5007490;28;20034;-77
2023/08/27 07:56:11;;;;;;;3.67;2.15;;;;;;;;;;5005409;28;20010;-78
2023/08/27 07:58:37;;;;;;;2.08;1.45;;;;;;;;;;4993501;28;20022;-78
2023/08/27 08:01:04;;;;;;;2.67;1.65;;;;;;;;;;5001606;28;20506;-78
2023/08/27 08:03:30;;;;;;;1.70;1.45;;;;;;;;;;5001495;28;20033;-77
2023/08/27 08:05:56;;;;;;;2.42;1.75;;;;;;;;;;5004281;28;20033;-86
2023/08/27 08:08:22;;;;;;;2.20;1.88;;;;;;;;;;5009373;28;20450;-87
2023/08/27 08:10:48;;;;;;;1.80;1.38;;;;;;;;;;5011286;28;20033;-86
2023/08/27 08:13:14;;;;;;;1.60;1.30;;;;;;;;;;5012090;28;20025;-86
2023/08/27 08:15:41;;;;;;;1.42;1.30;;;;;;;;;;5011757;28;20035;-86
2023/08/27 08:18:10;;;;;;;2.65;2.00;;;;;;;;;;5002871;28;20041;-85
2023/08/27 08:21:02;;;;;;;2.85;1.40;;;;;;;;;;5010148;28;20034;-82
2023/08/27 08:23:28;;;;;;;2.53;1.70;;;;;;;;;;5006861;28;20113;-92
2023/08/27 08:25:54;;;;;;;1.30;1.20;;;;;;;;;;5010044;28;20022;-78
2023/08/27 08:28:21;;;;;;;3.40;1.40;;;;;;;;;;5008441;28;20045;-80
2023/08/27 08:30:48;;;;;;;1.27;1.17;;;;;;;;;;5010931;28;20034;-84
2023/08/27 08:33:15;;;;;;;1.27;1.15;;;;;;;;;;5008343;28;20025;-82
2023/08/27 08:35:41;;;;;;;1.83;1.08;;;;;;;;;;5010914;28;20583;-78
2023/08/27 08:38:07;;;;;;;3.50;1.20;;;;;;;;;;5000054;28;20026;-81
2023/08/27 08:40:40;;;;;;;0.80;0.77;;;;;;;;;;5009531;28;20087;-81
2023/08/27 08:43:08;;;;;;;3.63;1.48;;;;;;;;;;5008839;28;20045;-78
2023/08/27 08:45:57;;;;;;;1.65;1.27;;;;;;;;;;5005608;28;20120;-77
2023/08/27 08:48:25;;;;;;;1.35;1.10;;;;;;;;;;4993916;28;20100;-77
2023/08/27 08:50:53;;;;;;;1.80;1.20;;;;;;;;;;5008291;28;20026;-81
2023/08/27 08:53:19;;;;;;;1.55;0.90;;;;;;;;;;5008469;28;20069;-83
2023/08/27 08:55:47;;;;;;;1.85;1.23;;;;;;;;;;5007854;28;20046;-80
2023/08/27 08:58:15;;;;;;;0.80;0.75;;;;;;;;;;5007222;28;20033;-78
2023/08/27 09:00:41;;;;;;;0.85;0.82;;;;;;;;;;5004754;28;20145;-79
2023/08/27 09:03:08;;;;;;;1.08;0.93;;;;;;;;;;5005454;28;20176;-80
2023/08/27 09:05:34;;;;;;;0.70;0.70;;;;;;;;;;5008754;28;20028;-80
2023/08/27 09:08:00;;;;;;;1.13;1.02;;;;;;;;;;5008879;28;20022;-79
2023/08/27 09:10:27;;;;;;;0.70;0.70;;;;;;;;;;5008808;28;20451;-75
2023/08/27 09:13:02;;;;;;;1.10;1.00;;;;;;;;;;4994881;28;20080;-78
2023/08/27 09:15:28;;;;;;;0.90;0.85;;;;;;;;;;5009989;28;20030;-76
2023/08/27 09:17:54;;;;;;;0.88;0.88;;;;;;;;;;5008397;28;20034;-80
2023/08/27 09:20:20;;;;;;;1.10;1.00;;;;;;;;;;5009834;28;20026;-80
2023/08/27 09:22:46;;;;;;;1.75;1.00;;;;;;;;;;5007315;28;20065;-81
2023/08/27 09:25:12;;;;;;;1.27;0.95;;;;;;;;;;4992401;28;20395;-81
2023/08/27 09:27:38;;;;;;;0.93;0.82;;;;;;;;;;5009289;28;20108;-86
2023/08/27 09:30:04;;;;;;;2.13;0.77;;;;;;;;;;5023608;28;20022;-80
2023/08/27 09:32:31;;;;;;;1.27;1.02;;;;;;;;;;5006814;28;20394;-79
2023/08/27 09:35:01;;;;;;;2.35;1.10;;;;;;;;;;5000045;28;20117;-80
2023/08/27 09:37:38;;;;;;;2.95;1.30;;;;;;;;;;5006307;28;20041;-80
2023/08/27 09:40:09;;;;;;;1.48;1.00;;;;;;;;;;5004969;28;20088;-80
2023/08/27 09:42:38;;;;;;;0.90;0.75;;;;;;;;;;4998244;28;20771;-79
2023/08/27 09:45:10;;;;;;;1.83;0.85;;;;;;;;;;5006871;28;20034;-79
2023/08/27 09:47:37;;;;;;;1.27;0.93;;;;;;;;;;5002117;28;20094;-80
2023/08/27 09:50:04;;;;;;;1.10;1.00;;;;;;;;;;4996560;28;20049;-79
2023/08/27 09:52:30;;;;;;;0.80;0.80;;;;;;;;;;5003153;28;20022;-80
2023/08/27 09:54:56;;;;;;;0.95;0.70;;;;;;;;;;5007266;28;20080;-80
2023/08/27 09:57:22;;;;;;;1.85;0.73;;;;;;;;;;5000643;28;20085;-81
2023/08/27 09:59:48;;;;;;;1.27;1.00;;;;;;;;;;4998878;28;20021;-81
2023/08/27 10:02:15;;;;;;;1.27;0.98;;;;;;;;;;4995360;28;20053;-80
2023/08/27 10:04:56;;;;;;;1.48;1.20;;;;;;;;;;5009120;28;20049;-79
2023/08/27 10:07:23;;;;;;;4.53;1.00;;;;;;;;;;4993844;28;20041;-79
2023/08/27 10:09:52;;;;;;;2.08;1.08;;;;;;;;;;4999149;28;20018;-80
2023/08/27 10:12:19;;;;;;;1.33;1.08;;;;;;;;;;5006957;28;20378;-80
2023/08/27 10:14:46;;;;;;;2.30;0.80;;;;;;;;;;5000409;28;20052;-79
2023/08/27 10:17:12;;;;;;;1.48;1.38;;;;;;;;;;4999155;28;20048;-80
2023/08/27 10:19:38;;;;;;;0.70;0.70;;;;;;;;;;4998877;28;20026;-79
2023/08/27 10:22:05;;;;;;;5.00;0.90;;;;;;;;;;4999934;28;21210;-79
2023/08/27 10:24:31;;;;;;;0.82;0.80;;;;;;;;;;4998851;28;20030;-78
2023/08/27 10:27:01;;;;;;;0.70;0.70;;;;;;;;;;5006131;28;20088;-80
2023/08/27 10:29:28;;;;;;;0.88;0.80;;;;;;;;;;5007407;28;20583;-83
2023/08/27 10:31:55;;;;;;;1.70;1.25;;;;;;;;;;5001342;28;20030;-86
2023/08/27 10:34:23;;;;;;;1.08;0.80;;;;;;;;;;5005889;28;20064;-87
2023/08/27 10:36:50;;;;;;;0.68;0.68;;;;;;;;;;5007391;28;20038;-84
2023/08/27 10:39:16;;;;;;;0.77;0.77;;;;;;;;;;5005692;28;20042;-88
2023/08/27 10:41:42;;;;;;;0.77;0.70;;;;;;;;;;5008163;28;20034;-85
2023/08/27 10:44:10;;;;;;;0.90;0.90;;;;;;;;;;5009128;28;20044;-86
2023/08/27 10:46:36;;;;;;;0.80;0.80;;;;;;;;;;5000885;28;20032;-85
2023/08/27 10:49:14;;;;;;;0.93;0.70;;;;;;;;;;5006280;28;20022;-85
2023/08/27 10:51:40;;;;;;;0.80;0.80;;;;;;;;;;5008159;28;20037;-89
2023/08/27 10:54:07;;;;;;;1.00;0.90;;;;;;;;;;5004834;28;20088;-79
2023/08/27 10:56:36;;;;;;;0.65;0.60;;;;;;;;;;5002404;28;20389;-79
2023/08/27 10:59:04;;;;;;;1.05;0.90;;;;;;;;;;5001464;28;20076;-78
2023/08/27 11:01:37;;;;;;;0.60;0.60;;;;;;;;;;5002822;28;20211;-78
2023/08/27 11:04:04;;;;;;;1.23;0.95;;;;;;;;;;4999776;28;20225;-77
2023/08/27 11:06:38;;;;;;;2.05;1.35;;;;;;;;;;4995033;28;20066;-78
2023/08/27 11:09:15;;;;;;;2.42;1.20;;;;;;;;;;5002119;28;20433;-78
2023/08/27 11:11:43;;;;;;;1.27;1.00;;;;;;;;;;4997300;28;20096;-78
2023/08/27 11:14:09;;;;;;;2.25;1.08;;;;;;;;;;5000593;28;20112;-78
2023/08/27 11:16:45;;;;;;;2.00;1.42;;;;;;;;;;5001404;28;20026;-78
2023/08/27 11:19:11;;;;;;;1.67;1.00;;;;;;;;;;5001239;28;20569;-78
2023/08/27 11:21:37;;;;;;;1.50;0.88;;;;;;;;;;5001303;28;20025;-78
2023/08/27 11:24:26;;;;;;;1.10;0.80;;;;;;;;;;4999570;28;20026;-79
2023/08/27 11:26:53;;;;;;;1.00;0.90;;;;;;;;;;4999620;28;20026;-79
2023/08/27 11:29:22;;;;;;;0.90;0.75;;;;;;;;;;5002405;28;20048;-79
2023/08/27 11:31:48;;;;;;;0.90;0.90;;;;;;;;;;5000036;28;20092;-77
2023/08/27 11:34:15;;;;;;;0.93;0.63;;;;;;;;;;4997384;28;20394;-77
2023/08/27 11:36:42;;;;;;;0.80;0.80;;;;;;;;;;4997662;28;20040;-77
2023/08/27 11:39:14;;;;;;;1.00;0.95;;;;;;;;;;4999395;28;21703;-77
2023/08/27 11:41:43;;;;;;;1.15;0.90;;;;;;;;;;4999865;28;20026;-77
2023/08/27 11:44:10;;;;;;;1.48;0.95;;;;;;;;;;4999821;28;20021;-81
2023/08/27 11:46:36;;;;;;;1.00;0.80;;;;;;;;;;5002609;28;20029;-81
2023/08/27 11:49:16;;;;;;;;;;;;;;;;;;;;;
2023/08/27 11:51:42;;;;;;;4.50;1.48;;;;;;;;;;4994747;28;20412;-82
2023/08/27 11:54:13;;;;;;;1.58;1.10;;;;;;;;;;4997478;28;20113;-83
2023/08/27 11:56:39;;;;;;;1.23;1.13;;;;;;;;;;5000921;28;20095;-82
2023/08/27 11:59:06;;;;;;;2.15;1.10;;;;;;;;;;5004101;28;20488;-82
2023/08/27 12:01:32;;;;;;;0.85;0.85;;;;;;;;;;5005233;28;20054;-83
2023/08/27 12:03:58;;;;;;;1.85;1.15;;;;;;;;;;5002563;28;20434;-83
2023/08/27 12:06:25;;;;;;;0.95;0.77;;;;;;;;;;5002074;28;20030;-83
2023/08/27 12:08:53;;;;;;;1.00;0.90;;;;;;;;;;5000954;28;20231;-82
2023/08/27 12:11:23;;;;;;;1.55;1.30;;;;;;;;;;4999806;28;20113;-82
2023/08/27 12:13:53;;;;;;;4.13;1.50;;;;;;;;;;5000058;28;20026;-82
2023/08/27 12:16:27;;;;;;;1.17;0.90;;;;;;;;;;5004580;28;20478;-82
2023/08/27 12:18:53;;;;;;;1.20;1.10;;;;;;;;;;5003221;28;20032;-83
2023/08/27 12:21:20;;;;;;;1.13;0.93;;;;;;;;;;5001077;28;20037;-82
2023/08/27 12:23:52;;;;;;;1.60;1.02;;;;;;;;;;5001934;28;20033;-79
2023/08/27 12:26:19;;;;;;;1.33;0.82;;;;;;;;;;5002312;28;20034;-82
2023/08/27 12:28:54;;;;;;;2.42;1.33;;;;;;;;;;4998531;28;20029;-82
2023/08/27 12:31:24;;;;;;;0.80;0.80;;;;;;;;;;5000082;28;20123;-82
2023/08/27 12:33:50;;;;;;;1.60;1.40;;;;;;;;;;4999558;28;20421;-83
2023/08/27 12:36:16;;;;;;;1.25;1.15;;;;;;;;;;5003047;28;20030;-82
2023/08/27 12:38:42;;;;;;;1.30;1.20;;;;;;;;;;5001400;28;20057;-83
2023/08/27 12:41:08;;;;;;;1.20;1.00;;;;;;;;;;4995297;28;20102;-82
2023/08/27 12:43:34;;;;;;;1.98;1.48;;;;;;;;;;4999455;28;20442;-82
2023/08/27 12:46:00;;;;;;;1.65;1.27;;;;;;;;;;5002138;28;20033;-82
2023/08/27 12:48:26;;;;;;;3.95;1.00;;;;;;;;;;5002836;28;20044;-82
2023/08/27 12:50:52;;;;;;;5.43;1.10;;;;;;;;;;4997503;28;20030;-82
2023/08/27 12:53:18;;;;;;;0.85;0.85;;;;;;;;;;4997646;28;20014;-83
2023/08/27 12:55:44;;;;;;;1.60;1.15;;;;;;;;;;4995769;28;20021;-83
2023/08/27 12:58:10;;;;;;;0.88;0.80;;;;;;;;;;5005736;28;20578;-83
2023/08/27 13:00:36;;;;;;;1.38;1.05;;;;;;;;;;5019683;28;20038;-82
2023/08/27 13:03:02;;;;;;;1.23;1.00;;;;;;;;;;4999827;28;20038;-82
2023/08/27 13:05:28;;;;;;;2.28;1.00;;;;;;;;;;5006674;28;20030;-82
2023/08/27 13:08:00;;;;;;;1.65;1.35;;;;;;;;;;4995443;28;20499;-82
2023/08/27 13:10:26;;;;;;;3.72;0.85;;;;;;;;;;5005811;28;20545;-82
2023/08/27 13:12:52;;;;;;;1.00;0.90;;;;;;;;;;5001790;28;20030;-82
2023/08/27 13:15:18;;;;;;;2.58;0.98;;;;;;;;;;5002373;28;20363;-82
2023/08/27 13:17:44;;;;;;;1.55;1.10;;;;;;;;;;4996771;28;20034;-82
2023/08/27 13:20:10;;;;;;;1.65;0.95;;;;;;;;;;5008137;28;20045;-82
2023/08/27 13:22:36;;;;;;;1.15;1.02;;;;;;;;;;5006107;28;20034;-83
2023/08/27 13:25:04;;;;;;;1.27;1.00;;;;;;;;;;5006243;28;20451;-83
2023/08/27 13:27:30;;;;;;;1.95;1.13;;;;;;;;;;5006234;28;20099;-83
2023/08/27 13:29:56;;;;;;;1.73;1.10;;;;;;;;;;4998372;28;20470;-83
2023/08/27 13:32:22;;;;;;;1.58;1.30;;;;;;;;;;4998632;28;20045;-82
2023/08/27 13:34:49;;;;;;;0.85;0.82;;;;;;;;;;5002589;28;20505;-80
2023/08/27 13:37:14;;;;;;;0.98;0.90;;;;;;;;;;5003438;28;20449;-79
2023/08/27 13:39:40;;;;;;;1.52;1.05;;;;;;;;;;5007280;28;20040;-78
2023/08/27 13:42:09;;;;;;;1.08;0.80;;;;;;;;;;5000920;28;20734;-79
2023/08/27 13:44:35;;;;;;;1.95;1.20;;;;;;;;;;5001657;28;20116;-80
2023/08/27 13:47:01;;;;;;;1.20;1.00;;;;;;;;;;4998329;28;20034;-78
2023/08/27 13:49:28;;;;;;;0.80;0.80;;;;;;;;;;5001874;28;20072;-76
2023/08/27 13:51:54;;;;;;;2.10;1.15;;;;;;;;;;5002212;28;20532;-76
2023/08/27 13:54:20;;;;;;;0.82;0.80;;;;;;;;;;5003675;28;20030;-83
2023/08/27 13:56:46;;;;;;;1.73;1.10;;;;;;;;;;5007141;28;20079;-88
2023/08/27 13:59:12;;;;;;;1.33;1.05;;;;;;;;;;5007278;28;20551;-76
2023/08/27 14:01:38;;;;;;;1.48;1.00;;;;;;;;;;5004785;28;20564;-82
2023/08/27 14:04:04;;;;;;;0.95;0.85;;;;;;;;;;5007521;28;20486;-79
2023/08/27 14:06:30;;;;;;;1.83;1.13;;;;;;;;;;5006881;28;20033;-91
2023/08/27 14:08:56;;;;;;;1.48;1.10;;;;;;;;;;5006195;28;20026;-82
2023/08/27 14:11:22;;;;;;;1.10;0.80;;;;;;;;;;5006001;28;20033;-75
2023/08/27 14:13:48;;;;;;;1.85;0.80;;;;;;;;;;5000591;28;20046;-78
2023/08/27 14:16:14;;;;;;;0.85;0.82;;;;;;;;;;5002509;28;20048;-80
2023/08/27 14:18:40;;;;;;;1.42;0.80;;;;;;;;;;5005194;28;20033;-87
2023/08/27 14:21:06;;;;;;;2.20;1.00;;;;;;;;;;4998716;28;20040;-79
2023/08/27 14:23:32;;;;;;;0.88;0.77;;;;;;;;;;4996980;28;20117;-83
2023/08/27 14:26:00;;;;;;;2.53;1.00;;;;;;;;;;5005065;28;20030;-82
2023/08/27 14:28:26;;;;;;;1.88;0.98;;;;;;;;;;5000623;28;20541;-78
2023/08/27 14:30:52;;;;;;;0.90;0.88;;;;;;;;;;4999136;28;20101;-82
2023/08/27 14:33:18;;;;;;;1.30;1.08;;;;;;;;;;4996056;28;20382;-80
2023/08/27 14:35:44;;;;;;;0.80;0.80;;;;;;;;;;5002109;28;20026;-83
2023/08/27 14:38:10;;;;;;;1.33;1.17;;;;;;;;;;4996708;28;20041;-86
2023/08/27 14:40:36;;;;;;;1.33;1.10;;;;;;;;;;4996243;28;20038;-88
2023/08/27 14:43:02;;;;;;;2.00;1.10;;;;;;;;;;5001939;28;20049;-85
2023/08/27 14:45:28;;;;;;;1.08;0.70;;;;;;;;;;5007227;28;20450;-90